createdAt,value
2019-04-05T00:00:44.791Z,85.73
2019-04-05T00:05:46.732Z,86.13
2019-04-05T00:10:48.778Z,84.37
2019-04-05T00:15:50.592Z,86.67
2019-04-05T00:20:52.450Z,97.43
2019-04-05T00:25:54.284Z,83.40
2019-04-05T00:30:56.117Z,87.00
2019-04-05T00:35:57.976Z,87.03
2019-04-05T00:41:18.041Z,89.60
2019-04-05T00:46:20.174Z,82.80
2019-04-05T00:51:22.299Z,92.90
2019-04-05T00:56:24.236Z,88.60
2019-04-05T01:01:26.143Z,99.83
2019-04-05T01:06:28.978Z,97.93
2019-04-05T01:11:30.813Z,96.20
2019-04-05T01:16:32.691Z,109.63
2019-04-05T01:21:38.509Z,109.57
2019-04-05T01:26:43.031Z,103.43
2019-04-05T01:31:45.057Z,111.47
2019-04-05T01:36:47.004Z,101.47
2019-04-05T01:41:49.566Z,106.40
2019-04-05T01:46:51.383Z,106.07
2019-04-05T01:51:53.568Z,108.93
2019-04-05T01:56:55.395Z,103.97
2019-04-05T02:01:57.350Z,105.77
2019-04-05T02:07:00.300Z,107.03
2019-04-05T02:12:02.582Z,117.80
2019-04-05T02:17:04.802Z,120.53
2019-04-05T02:22:06.897Z,112.40
2019-04-05T02:27:08.955Z,125.17
2019-04-05T02:32:11.023Z,124.03
2019-04-05T02:37:12.972Z,123.13
2019-04-05T02:42:15.445Z,119.63
2019-04-05T02:47:19.361Z,126.23
2019-04-05T02:52:23.729Z,130.73
2019-04-05T02:57:27.393Z,130.50
2019-04-05T03:02:29.726Z,131.13
2019-04-05T03:07:31.763Z,130.43
2019-04-05T03:12:35.161Z,131.70
2019-04-05T03:17:37.588Z,126.30
2019-04-05T03:22:39.826Z,125.90
2019-04-05T03:27:42.155Z,129.77
2019-04-05T03:32:44.586Z,134.07
2019-04-05T03:37:46.515Z,126.03
2019-04-05T03:42:49.209Z,132.47
2019-04-05T03:47:51.222Z,132.57
2019-04-05T03:52:53.257Z,134.13
2019-04-05T03:57:55.212Z,139.53
2019-04-05T04:02:57.481Z,137.47
2019-04-05T04:07:59.497Z,144.17
2019-04-05T04:13:01.551Z,143.60
2019-04-05T04:18:04.172Z,142.73
2019-04-05T04:23:08.614Z,134.97
2019-04-05T04:28:10.833Z,145.33
2019-04-05T04:33:12.898Z,146.43
2019-04-05T04:38:15.307Z,139.97
2019-04-05T04:43:17.931Z,140.70
2019-04-05T04:48:21.168Z,131.47
2019-04-05T04:53:25.025Z,137.33
2019-04-05T04:58:27.309Z,136.50
2019-04-05T05:03:29.358Z,138.70
2019-04-05T05:08:31.789Z,132.13
2019-04-05T05:13:33.733Z,137.27
2019-04-05T05:18:36.169Z,132.37
2019-04-05T05:23:38.483Z,141.63
2019-04-05T05:28:40.999Z,143.70
2019-04-05T05:33:44.162Z,140.30
2019-04-05T05:38:46.228Z,151.17
2019-04-05T05:43:48.175Z,138.20
2019-04-05T05:48:51.114Z,129.00
2019-04-05T05:53:53.059Z,142.97
2019-04-05T05:58:59.441Z,145.93
2019-04-05T06:04:00.125Z,150.10
2019-04-05T06:09:03.909Z,143.33
2019-04-05T06:14:05.841Z,146.53
2019-04-05T06:19:07.682Z,153.80
2019-04-05T06:24:09.535Z,140.97
2019-04-05T06:29:11.343Z,151.33
2019-04-05T06:34:13.209Z,137.70
2019-04-05T06:39:15.050Z,132.00
2019-04-05T06:44:17.073Z,144.73
2019-04-05T06:49:19.109Z,134.87
2019-04-05T06:54:20.941Z,120.50
2019-04-05T06:59:23.008Z,129.37
2019-04-05T07:04:24.831Z,122.60
2019-04-05T07:09:26.667Z,119.87
2019-04-05T07:14:28.635Z,123.90
2019-04-05T07:19:30.663Z,114.93
2019-04-05T07:24:32.497Z,113.97
2019-04-05T07:29:34.433Z,117.27
2019-04-05T07:34:37.076Z,115.37
2019-04-05T07:39:38.917Z,115.73
2019-04-05T07:44:41.021Z,101.20
2019-04-05T07:49:42.880Z,106.63
2019-04-05T07:54:45.056Z,98.40
2019-04-05T07:59:47.103Z,104.10
2019-04-05T08:04:48.884Z,104.13
2019-04-05T08:09:51.251Z,104.73
2019-04-05T08:14:54.145Z,97.07
2019-04-05T08:19:55.951Z,100.33
2019-04-05T08:24:57.802Z,104.20
2019-04-05T08:29:59.607Z,100.03
2019-04-05T08:35:01.446Z,92.87
2019-04-05T08:40:04.504Z,100.07
2019-04-05T08:45:06.558Z,91.73
2019-04-05T08:50:08.682Z,95.17
2019-04-05T08:55:10.945Z,99.27
2019-04-05T09:00:14.606Z,98.03
2019-04-05T09:05:17.774Z,88.53
2019-04-05T09:10:19.748Z,100.70
2019-04-05T09:15:21.746Z,105.53
2019-04-05T09:20:24.397Z,94.23
2019-04-05T09:25:26.227Z,97.87
2019-04-05T09:30:28.043Z,91.70
2019-04-05T09:35:30.103Z,94.57
2019-04-05T09:40:32.045Z,94.93
2019-04-05T09:45:35.206Z,94.97
2019-04-05T09:50:37.061Z,94.40
2019-04-05T09:55:39.201Z,95.20
2019-04-05T10:00:41.176Z,89.63
2019-04-05T10:05:45.552Z,90.47
2019-04-05T10:10:47.598Z,89.67
2019-04-05T10:15:49.741Z,86.93
2019-04-05T10:20:51.576Z,92.47
2019-04-05T10:25:53.457Z,90.83
2019-04-05T10:30:55.301Z,84.07
2019-04-05T10:35:57.249Z,89.87
2019-04-05T10:40:59.085Z,85.93
2019-04-05T10:46:01.137Z,83.03
2019-04-05T10:51:03.697Z,83.57
2019-04-05T10:56:05.621Z,82.87
2019-04-05T11:01:07.886Z,86.53
2019-04-05T11:06:09.818Z,87.47
2019-04-05T11:11:11.656Z,78.73
2019-04-05T11:16:13.482Z,78.30
2019-04-05T11:21:16.278Z,79.00
2019-04-05T11:26:19.179Z,77.87
2019-04-05T11:31:21.222Z,79.77
2019-04-05T11:36:23.918Z,86.37
2019-04-05T11:41:27.060Z,83.83
2019-04-05T11:46:30.430Z,82.47
2019-04-05T11:51:32.427Z,84.87
2019-04-05T11:56:34.361Z,86.43
2019-04-05T12:01:53.769Z,82.90
2019-04-05T12:06:55.626Z,77.63
2019-04-05T12:11:58.067Z,78.50
2019-04-05T12:17:00.057Z,81.10
2019-04-05T12:22:04.383Z,81.77
2019-04-05T12:27:05.783Z,75.70
2019-04-05T12:32:07.702Z,69.67
2019-04-05T12:37:09.503Z,68.13
2019-04-05T12:42:12.256Z,61.00
2019-04-05T12:47:15.780Z,65.83
2019-04-05T12:52:22.894Z,67.90
2019-04-05T12:57:22.086Z,64.03
2019-04-05T13:02:33.259Z,65.33
2019-04-05T13:07:27.775Z,59.33
2019-04-05T13:12:29.668Z,58.37
2019-04-05T13:17:31.719Z,62.43
2019-04-05T13:22:33.670Z,65.13
2019-04-05T13:27:35.497Z,63.10
2019-04-05T13:32:37.316Z,67.33
2019-04-05T13:37:39.140Z,74.30
2019-04-05T13:42:40.994Z,67.90
2019-04-05T13:47:42.832Z,72.57
2019-04-05T13:52:44.710Z,64.30
2019-04-05T13:57:46.643Z,66.73
2019-04-05T14:02:50.750Z,70.13
2019-04-05T14:07:54.668Z,61.90
2019-04-05T14:12:56.657Z,68.77
2019-04-05T14:17:59.815Z,62.43
2019-04-05T14:23:01.645Z,61.57
2019-04-05T14:28:04.555Z,65.50
2019-04-05T14:33:07.239Z,64.10
2019-04-05T14:38:11.624Z,62.10
2019-04-05T14:43:15.014Z,66.60
2019-04-05T14:48:17.690Z,65.07
2019-04-05T14:53:19.511Z,57.37
2019-04-05T14:58:21.368Z,64.00
2019-04-05T15:03:23.185Z,59.83
2019-04-05T15:08:25.037Z,64.17
2019-04-05T15:13:26.878Z,66.83
2019-04-05T15:18:28.830Z,61.80
2019-04-05T15:23:30.665Z,61.20
2019-04-05T15:28:32.493Z,63.83
2019-04-05T15:33:34.341Z,62.23
2019-04-05T15:38:36.179Z,56.43
2019-04-05T15:43:38.006Z,61.13
2019-04-05T15:48:39.878Z,65.80
2019-04-05T15:53:41.710Z,60.47
2019-04-05T15:58:43.679Z,62.03
2019-04-05T16:03:45.628Z,61.27
2019-04-05T16:08:47.565Z,68.10
2019-04-05T16:13:50.287Z,70.83
2019-04-05T16:18:52.138Z,74.53
2019-04-05T16:23:53.979Z,79.70
2019-04-05T16:28:55.779Z,86.60
2019-04-05T16:33:57.693Z,81.57
2019-04-05T16:38:59.519Z,83.50
2019-04-05T16:44:01.878Z,79.90
2019-04-05T16:49:03.726Z,82.33
2019-04-05T16:54:05.557Z,76.90
2019-04-05T16:59:07.641Z,78.47
2019-04-05T17:04:09.447Z,74.43
2019-04-05T17:09:11.276Z,78.37
2019-04-05T17:14:13.108Z,78.93
2019-04-05T17:19:14.965Z,75.83
2019-04-05T17:24:16.869Z,81.33
2019-04-05T17:29:18.694Z,73.50
2019-04-05T17:34:20.535Z,80.67
2019-04-05T17:39:22.976Z,81.27
2019-04-05T17:44:24.880Z,79.87
2019-04-05T17:49:27.052Z,85.30
2019-04-05T17:54:29.074Z,96.57
2019-04-05T17:59:31.264Z,92.50
2019-04-05T18:04:33.094Z,89.13
2019-04-05T18:09:35.031Z,96.40
2019-04-05T18:14:36.873Z,93.97
2019-04-05T18:19:38.831Z,90.80
2019-04-05T18:24:40.678Z,89.77
2019-04-05T18:29:42.502Z,95.43
2019-04-05T18:34:45.431Z,92.47
2019-04-05T18:39:47.366Z,94.77
2019-04-05T18:44:49.406Z,90.97
2019-04-05T18:50:02.467Z,94.23
2019-04-05T18:54:55.094Z,92.93
2019-04-05T18:59:59.987Z,102.93
2019-04-05T19:05:02.062Z,91.53
2019-04-05T19:10:05.406Z,95.73
2019-04-05T19:15:07.544Z,91.67
2019-04-05T19:20:09.788Z,87.37
2019-04-05T19:25:12.414Z,99.20
2019-04-05T19:50:31.145Z,95.90
2019-04-05T19:55:32.958Z,93.57
2019-04-05T20:00:34.835Z,83.97
2019-04-05T20:05:36.651Z,87.07
2019-04-05T20:10:38.481Z,85.67
2019-04-05T20:15:40.401Z,93.87
2019-04-05T20:20:42.245Z,102.07
2019-04-05T20:25:46.097Z,95.20
2019-04-05T20:30:47.907Z,90.50
2019-04-05T20:35:49.750Z,86.47
2019-04-05T20:40:51.744Z,89.33
2019-04-05T20:45:53.791Z,95.77
2019-04-05T20:50:55.711Z,86.53
2019-04-05T20:55:57.560Z,85.50
2019-04-05T21:00:59.578Z,95.30
2019-04-05T21:06:01.797Z,96.80
2019-04-05T21:11:04.788Z,88.20
2019-04-05T21:16:06.625Z,89.03
2019-04-05T21:21:08.517Z,86.07
2019-04-05T21:26:11.293Z,95.77
2019-04-05T21:31:13.242Z,85.87
2019-04-05T21:36:16.059Z,93.33
2019-04-05T21:41:18.004Z,88.20
2019-04-05T21:46:19.842Z,89.37
2019-04-05T21:51:21.684Z,89.93
2019-04-05T21:56:23.542Z,87.10
2019-04-05T22:01:26.389Z,93.10
2019-04-05T22:06:30.115Z,94.13
2019-04-05T22:11:32.128Z,89.60
2019-04-05T22:16:33.996Z,96.27
2019-04-05T22:21:35.862Z,91.47
2019-04-05T22:26:37.685Z,92.27
2019-04-05T22:31:39.522Z,90.90
2019-04-05T22:36:41.327Z,85.40
2019-04-05T22:41:43.152Z,91.87
2019-04-05T22:46:45.000Z,82.97
2019-04-05T22:51:46.853Z,90.27
2019-04-05T22:56:48.692Z,88.60
2019-04-05T23:01:50.534Z,86.43
2019-04-05T23:06:52.441Z,86.03
2019-04-05T23:11:54.250Z,92.97
2019-04-05T23:16:56.096Z,92.20
2019-04-05T23:21:57.934Z,80.47
2019-04-05T23:26:59.748Z,88.93
2019-04-05T23:32:01.596Z,87.10
2019-04-05T23:37:03.526Z,91.70
2019-04-05T23:42:05.448Z,93.17
2019-04-05T23:47:07.498Z,93.87
2019-04-05T23:52:09.844Z,99.63
2019-04-05T23:57:11.692Z,92.67
